createdAt,value
2017-07-21T00:01:01.347Z,23.98
2017-07-21T00:03:27.714Z,23.97
2017-07-21T00:05:54.073Z,23.97
2017-07-21T00:08:20.438Z,23.96
2017-07-21T00:10:46.788Z,23.96
2017-07-21T00:13:13.186Z,23.95
2017-07-21T00:15:39.583Z,23.96
2017-07-21T00:18:06.719Z,23.95
2017-07-21T00:20:33.074Z,23.94
2017-07-21T00:22:59.450Z,23.93
2017-07-21T00:25:26.750Z,23.93
2017-07-21T00:27:53.139Z,23.93
2017-07-21T00:30:19.548Z,23.92
2017-07-21T00:32:45.927Z,23.92
2017-07-21T00:35:12.292Z,23.91
2017-07-21T00:37:38.694Z,23.90
2017-07-21T00:40:05.074Z,23.90
2017-07-21T00:42:31.437Z,23.90
2017-07-21T00:44:57.811Z,23.90
2017-07-21T00:47:24.179Z,23.89
2017-07-21T00:49:51.343Z,23.89
2017-07-21T00:52:18.476Z,23.88
2017-07-21T00:54:44.843Z,23.88
2017-07-21T00:57:11.221Z,23.88
2017-07-21T00:59:37.582Z,23.88
2017-07-21T01:02:03.955Z,23.87
2017-07-21T01:04:30.326Z,23.87
2017-07-21T01:06:56.689Z,23.86
2017-07-21T01:09:23.059Z,23.85
2017-07-21T01:11:49.426Z,23.84
2017-07-21T01:14:15.786Z,23.84
2017-07-21T01:16:42.178Z,23.84
2017-07-21T01:19:08.609Z,23.83
2017-07-21T01:21:35.010Z,23.83
2017-07-21T01:24:01.395Z,23.83
2017-07-21T01:26:27.754Z,23.82
2017-07-21T01:28:54.118Z,23.81
2017-07-21T01:31:20.477Z,23.81
2017-07-21T01:33:46.847Z,23.80
2017-07-21T01:36:13.198Z,23.80
2017-07-21T01:38:40.344Z,23.80
2017-07-21T01:41:06.714Z,23.79
2017-07-21T01:43:33.851Z,23.79
2017-07-21T01:46:00.203Z,23.79
2017-07-21T01:48:26.558Z,23.77
2017-07-21T01:50:52.934Z,23.77
2017-07-21T01:53:20.066Z,23.76
2017-07-21T01:55:46.449Z,23.75
2017-07-21T01:58:13.591Z,23.75
2017-07-21T02:00:39.951Z,23.75
2017-07-21T02:03:06.322Z,23.75
2017-07-21T02:05:33.443Z,23.74
2017-07-21T02:07:59.830Z,23.73
2017-07-21T02:10:26.990Z,23.73
2017-07-21T02:12:53.358Z,23.73
2017-07-21T02:15:20.514Z,23.72
2017-07-21T02:17:48.780Z,23.72
2017-07-21T02:20:15.148Z,23.71
2017-07-21T02:22:41.523Z,23.71
2017-07-21T02:25:07.903Z,23.71
2017-07-21T02:27:34.271Z,23.70
2017-07-21T02:30:00.674Z,23.70
2017-07-21T02:32:27.180Z,23.69
2017-07-21T02:34:53.537Z,23.69
2017-07-21T02:37:19.900Z,23.69
2017-07-21T02:39:46.261Z,23.69
2017-07-21T02:42:13.410Z,23.70
2017-07-21T02:44:39.783Z,23.70
2017-07-21T02:47:06.894Z,23.69
2017-07-21T02:49:33.359Z,23.69
2017-07-21T02:51:59.726Z,23.69
2017-07-21T02:54:26.087Z,23.68
2017-07-21T02:56:52.448Z,23.68
2017-07-21T02:59:18.851Z,23.68
2017-07-21T03:01:45.214Z,23.68
2017-07-21T03:04:11.575Z,23.67
2017-07-21T03:06:37.939Z,23.67
2017-07-21T03:09:05.087Z,23.67
2017-07-21T03:11:31.462Z,23.67
2017-07-21T03:13:58.586Z,23.65
2017-07-21T03:16:24.975Z,23.65
2017-07-21T03:18:52.102Z,23.65
2017-07-21T03:21:18.471Z,23.65
2017-07-21T03:23:44.827Z,23.64
2017-07-21T03:26:11.186Z,23.63
2017-07-21T03:28:38.359Z,23.63
2017-07-21T03:31:05.483Z,23.62
2017-07-21T03:33:31.844Z,23.62
2017-07-21T03:35:58.199Z,23.62
2017-07-21T03:38:24.595Z,23.62
2017-07-21T03:40:50.974Z,23.61
2017-07-21T03:43:17.354Z,23.61
2017-07-21T03:45:43.719Z,23.60
2017-07-21T03:48:10.084Z,23.59
2017-07-21T03:50:36.454Z,23.59
2017-07-21T03:53:02.818Z,23.58
2017-07-21T03:55:29.179Z,23.58
2017-07-21T03:57:55.639Z,23.57
2017-07-21T04:00:22.008Z,23.57
2017-07-21T04:02:48.363Z,23.57
2017-07-21T04:05:14.753Z,23.57
2017-07-21T04:07:41.121Z,23.56
2017-07-21T04:10:07.494Z,23.56
2017-07-21T04:12:33.872Z,23.55
2017-07-21T04:15:00.266Z,23.54
2017-07-21T04:17:26.638Z,23.54
2017-07-21T04:19:53.005Z,23.53
2017-07-21T04:22:19.397Z,23.53
2017-07-21T04:24:45.767Z,23.52
2017-07-21T04:27:12.146Z,23.52
2017-07-21T04:29:38.514Z,23.51
2017-07-21T04:32:05.637Z,23.50
2017-07-21T04:34:32.016Z,23.51
2017-07-21T04:36:58.382Z,23.49
2017-07-21T04:39:25.533Z,23.49
2017-07-21T04:41:51.940Z,23.49
2017-07-21T04:44:19.066Z,23.49
2017-07-21T04:46:46.203Z,23.48
2017-07-21T04:49:12.580Z,23.48
2017-07-21T04:51:39.723Z,23.48
2017-07-21T04:54:06.103Z,23.47
2017-07-21T04:56:33.231Z,23.47
2017-07-21T04:58:59.590Z,23.47
2017-07-21T05:01:25.957Z,23.46
2017-07-21T05:03:52.323Z,23.46
2017-07-21T05:06:19.466Z,23.45
2017-07-21T05:08:45.848Z,23.45
2017-07-21T05:11:12.998Z,23.45
2017-07-21T05:13:40.122Z,23.44
2017-07-21T05:16:06.501Z,23.43
2017-07-21T05:18:32.888Z,23.43
2017-07-21T05:21:00.003Z,23.43
2017-07-21T05:23:26.394Z,23.42
2017-07-21T05:25:53.514Z,23.41
2017-07-21T05:28:19.904Z,23.41
2017-07-21T05:30:47.046Z,23.41
2017-07-21T05:33:13.397Z,23.41
2017-07-21T05:35:39.795Z,23.41
2017-07-21T05:38:06.150Z,23.40
2017-07-21T05:40:32.530Z,23.39
2017-07-21T05:42:58.898Z,23.39
2017-07-21T05:45:25.307Z,23.39
2017-07-21T05:47:51.695Z,23.38
2017-07-21T05:50:18.060Z,23.38
2017-07-21T05:52:44.444Z,23.39
2017-07-21T05:55:10.802Z,23.38
2017-07-21T05:57:37.183Z,23.38
2017-07-21T06:00:03.565Z,23.38
2017-07-21T06:02:29.939Z,23.37
2017-07-21T06:04:56.331Z,23.37
2017-07-21T06:07:22.715Z,23.37
2017-07-21T06:09:49.090Z,23.37
2017-07-21T06:12:15.455Z,23.37
2017-07-21T06:14:41.834Z,23.36
2017-07-21T06:17:08.214Z,23.37
2017-07-21T06:19:34.570Z,23.36
2017-07-21T06:22:00.962Z,23.36
2017-07-21T06:24:27.375Z,23.36
2017-07-21T06:26:53.743Z,23.36
2017-07-21T06:29:20.110Z,23.35
2017-07-21T06:31:46.682Z,23.35
2017-07-21T06:34:13.238Z,23.36
2017-07-21T06:36:39.799Z,23.36
2017-07-21T06:39:06.350Z,23.36
2017-07-21T06:41:32.898Z,23.36
2017-07-21T06:43:59.270Z,23.35
2017-07-21T06:46:25.648Z,23.35
2017-07-21T06:48:52.033Z,23.35
2017-07-21T06:51:18.387Z,23.36
2017-07-21T06:53:44.752Z,23.36
2017-07-21T06:56:11.128Z,23.36
2017-07-21T06:58:38.285Z,23.37
2017-07-21T07:01:04.678Z,23.37
2017-07-21T07:03:31.139Z,23.37
2017-07-21T07:05:57.631Z,23.38
2017-07-21T07:08:24.020Z,23.38
2017-07-21T07:10:50.379Z,23.39
2017-07-21T07:13:16.744Z,23.38
2017-07-21T07:15:43.123Z,23.38
2017-07-21T07:18:09.487Z,23.38
2017-07-21T07:20:35.859Z,23.38
2017-07-21T07:23:03.155Z,23.37
2017-07-21T07:25:29.522Z,23.38
2017-07-21T07:27:55.896Z,23.38
2017-07-21T07:30:22.271Z,23.37
2017-07-21T07:32:49.394Z,23.37
2017-07-21T07:35:15.755Z,23.36
2017-07-21T07:37:42.099Z,23.36
2017-07-21T07:40:08.450Z,23.36
2017-07-21T07:42:34.827Z,23.35
2017-07-21T07:45:01.247Z,23.35
2017-07-21T07:47:27.818Z,23.35
2017-07-21T07:49:54.351Z,23.35
2017-07-21T07:52:20.736Z,23.35
2017-07-21T07:54:47.102Z,23.36
2017-07-21T07:57:13.495Z,23.35
2017-07-21T07:59:39.864Z,23.35
2017-07-21T08:02:06.228Z,23.35
2017-07-21T08:04:33.382Z,23.34
2017-07-21T08:06:59.747Z,23.34
2017-07-21T08:09:26.963Z,23.34
2017-07-21T08:11:53.328Z,23.35
2017-07-21T08:14:19.903Z,23.36
2017-07-21T08:16:46.306Z,23.36
2017-07-21T08:19:12.833Z,23.36
2017-07-21T08:21:39.238Z,23.36
2017-07-21T08:24:05.707Z,23.35
2017-07-21T08:26:32.138Z,23.36
2017-07-21T08:28:58.594Z,23.37
2017-07-21T08:31:24.971Z,23.37
2017-07-21T08:33:51.334Z,23.38
2017-07-21T08:36:17.703Z,23.40
2017-07-21T08:38:44.102Z,23.40
2017-07-21T08:41:10.501Z,23.41
2017-07-21T08:43:36.885Z,23.42
2017-07-21T08:46:03.363Z,23.42
2017-07-21T08:48:29.806Z,23.42
2017-07-21T08:50:56.211Z,23.48
2017-07-21T08:53:22.565Z,23.48
2017-07-21T08:55:48.948Z,23.48
2017-07-21T08:58:15.320Z,23.50
2017-07-21T09:00:41.702Z,23.51
2017-07-21T09:03:08.830Z,23.50
2017-07-21T09:05:35.323Z,23.51
2017-07-21T09:08:01.708Z,23.51
2017-07-21T09:10:28.070Z,23.51
2017-07-21T09:12:54.485Z,23.52
2017-07-21T09:15:20.852Z,23.53
2017-07-21T09:17:47.238Z,23.52
2017-07-21T09:20:13.639Z,23.52
2017-07-21T09:22:40.056Z,23.54
2017-07-21T09:25:06.423Z,23.54
2017-07-21T09:27:32.837Z,23.55
2017-07-21T09:29:59.218Z,23.56
2017-07-21T09:32:25.591Z,23.55
2017-07-21T09:34:51.989Z,23.55
2017-07-21T09:37:18.381Z,23.56
2017-07-21T09:39:44.769Z,23.55
2017-07-21T09:42:11.318Z,23.56
2017-07-21T09:44:37.686Z,23.57
2017-07-21T09:47:04.055Z,23.57
2017-07-21T09:49:30.456Z,23.59
2017-07-21T09:51:56.991Z,23.61
2017-07-21T09:54:23.346Z,23.62
2017-07-21T09:56:49.711Z,23.62
2017-07-21T09:59:16.073Z,23.62
2017-07-21T10:01:42.444Z,23.62
2017-07-21T10:04:08.831Z,23.63
2017-07-21T10:06:35.215Z,23.66
2017-07-21T10:09:01.812Z,23.67
2017-07-21T10:11:28.207Z,23.68
2017-07-21T10:13:54.557Z,23.70
2017-07-21T10:16:20.980Z,23.73
2017-07-21T10:18:47.338Z,23.74
2017-07-21T10:21:13.782Z,23.73
2017-07-21T10:23:40.163Z,23.74
2017-07-21T10:26:06.642Z,23.74
2017-07-21T10:28:33.035Z,23.75
2017-07-21T10:30:59.383Z,23.75
2017-07-21T10:33:25.759Z,23.76
2017-07-21T10:35:52.130Z,23.79
2017-07-21T10:38:18.575Z,23.80
2017-07-21T10:40:44.935Z,23.80
2017-07-21T10:43:11.307Z,23.81
2017-07-21T10:45:37.711Z,23.81
2017-07-21T10:48:04.077Z,23.81
2017-07-21T10:50:30.459Z,23.81
2017-07-21T10:52:56.814Z,23.82
2017-07-21T10:55:23.966Z,23.82
2017-07-21T10:57:50.324Z,23.82
2017-07-21T11:00:16.703Z,23.83
2017-07-21T11:02:43.066Z,23.84
2017-07-21T11:05:09.434Z,23.84
2017-07-21T11:07:35.834Z,23.83
2017-07-21T11:10:03.362Z,23.83
2017-07-21T11:12:29.772Z,23.83
2017-07-21T11:14:56.134Z,23.84
2017-07-21T11:17:22.495Z,23.85
2017-07-21T11:19:48.867Z,23.85
2017-07-21T11:22:15.224Z,23.85
2017-07-21T11:24:41.798Z,23.85
2017-07-21T11:27:08.153Z,23.85
2017-07-21T11:29:34.646Z,23.86
2017-07-21T11:32:01.014Z,23.86
2017-07-21T11:34:27.378Z,23.85
2017-07-21T11:36:53.758Z,23.85
2017-07-21T11:39:20.900Z,23.85
2017-07-21T11:41:48.705Z,23.86
2017-07-21T11:44:15.124Z,23.85
2017-07-21T11:46:41.511Z,23.88
2017-07-21T11:49:07.880Z,23.88
2017-07-21T11:51:34.263Z,23.87
2017-07-21T11:54:00.629Z,23.93
2017-07-21T11:56:27.099Z,23.99
2017-07-21T11:58:53.461Z,24.03
2017-07-21T12:01:19.874Z,24.06
2017-07-21T12:03:46.270Z,24.07
2017-07-21T12:06:13.448Z,24.10
2017-07-21T12:08:39.854Z,24.11
2017-07-21T12:11:06.302Z,24.11
2017-07-21T12:13:32.695Z,24.12
2017-07-21T12:15:59.150Z,24.13
2017-07-21T12:18:25.560Z,24.15
2017-07-21T12:20:51.943Z,24.16
2017-07-21T12:23:19.066Z,24.16
2017-07-21T12:25:45.439Z,24.16
2017-07-21T12:28:11.815Z,24.17
2017-07-21T12:30:38.175Z,24.17
2017-07-21T12:33:05.473Z,24.17
2017-07-21T12:35:31.855Z,24.18
2017-07-21T12:37:58.229Z,24.18
2017-07-21T12:40:25.466Z,24.18
2017-07-21T12:42:52.025Z,24.20
2017-07-21T12:45:18.403Z,24.20
2017-07-21T12:47:44.766Z,24.21
2017-07-21T12:50:11.130Z,24.22
2017-07-21T12:52:37.507Z,24.20
2017-07-21T12:55:03.874Z,24.20
2017-07-21T12:57:30.258Z,24.20
2017-07-21T12:59:56.619Z,24.20
2017-07-21T13:02:23.022Z,24.20
2017-07-21T13:04:49.390Z,24.20
2017-07-21T13:07:15.785Z,24.20
2017-07-21T13:09:42.143Z,24.19
2017-07-21T13:12:08.502Z,24.19
2017-07-21T13:14:34.887Z,24.19
2017-07-21T13:17:02.123Z,24.18
2017-07-21T13:19:28.517Z,24.17
2017-07-21T13:21:54.883Z,24.17
2017-07-21T13:24:21.251Z,24.17
2017-07-21T13:26:47.616Z,24.17
2017-07-21T13:29:13.987Z,24.16
2017-07-21T13:31:40.367Z,24.16
2017-07-21T13:34:07.498Z,24.15
2017-07-21T13:36:33.886Z,24.15
2017-07-21T13:39:01.044Z,24.15
2017-07-21T13:41:28.191Z,24.15
2017-07-21T13:43:54.552Z,24.15
2017-07-21T13:46:21.710Z,24.14
2017-07-21T13:48:48.073Z,24.13
2017-07-21T13:51:15.219Z,24.14
2017-07-21T13:53:41.598Z,24.14
2017-07-21T13:56:08.739Z,24.15
2017-07-21T13:58:35.106Z,24.14
2017-07-21T14:01:02.271Z,24.13
2017-07-21T14:03:29.418Z,24.13
2017-07-21T14:05:55.802Z,24.12
2017-07-21T14:08:22.930Z,24.12
2017-07-21T14:10:49.306Z,24.12
2017-07-21T14:13:15.699Z,24.12
2017-07-21T14:15:42.077Z,24.12
2017-07-21T14:18:08.443Z,24.12
2017-07-21T14:20:34.998Z,24.12
2017-07-21T14:23:01.358Z,24.11
2017-07-21T14:25:27.746Z,24.11
2017-07-21T14:27:54.122Z,24.11
2017-07-21T14:30:20.514Z,24.11
2017-07-21T14:32:47.661Z,24.11
2017-07-21T14:35:14.011Z,24.11
2017-07-21T14:37:40.386Z,24.11
2017-07-21T14:40:07.523Z,24.11
2017-07-21T14:42:33.906Z,24.10
2017-07-21T14:45:01.046Z,24.11
2017-07-21T14:47:27.446Z,24.10
2017-07-21T14:49:53.819Z,24.10
2017-07-21T14:52:20.215Z,24.10
2017-07-21T14:54:46.646Z,24.10
2017-07-21T14:57:13.024Z,24.11
2017-07-21T14:59:40.184Z,24.10
2017-07-21T15:02:07.312Z,24.10
2017-07-21T15:04:33.704Z,24.10
2017-07-21T15:07:00.865Z,24.09
2017-07-21T15:09:27.999Z,24.09
2017-07-21T15:11:54.391Z,24.09
2017-07-21T15:14:20.794Z,24.09
2017-07-21T15:16:47.190Z,24.09
2017-07-21T15:19:13.579Z,24.09
2017-07-21T15:21:39.950Z,24.08
2017-07-21T15:24:06.335Z,24.08
2017-07-21T15:26:33.488Z,24.08
2017-07-21T15:28:59.842Z,24.08
2017-07-21T15:31:26.202Z,24.08
2017-07-21T15:33:53.331Z,24.08
2017-07-21T15:36:19.748Z,24.08
2017-07-21T15:38:46.127Z,24.07
2017-07-21T15:41:12.506Z,24.07
2017-07-21T15:43:38.873Z,24.07
2017-07-21T15:46:05.258Z,24.07
2017-07-21T15:48:31.645Z,24.07
2017-07-21T15:50:58.035Z,24.07
2017-07-21T15:53:24.410Z,24.07
2017-07-21T15:55:50.811Z,24.07
2017-07-21T15:58:17.354Z,24.07
2017-07-21T16:00:43.707Z,24.06
2017-07-21T16:03:10.077Z,24.07
2017-07-21T16:05:36.466Z,24.06
2017-07-21T16:08:02.847Z,24.06
2017-07-21T16:10:29.263Z,24.06
2017-07-21T16:12:55.635Z,24.06
2017-07-21T16:15:22.007Z,24.06
2017-07-21T16:17:48.394Z,24.06
2017-07-21T16:20:14.765Z,24.05
2017-07-21T16:22:41.122Z,24.06
2017-07-21T16:25:07.498Z,24.06
2017-07-21T16:27:33.870Z,24.06
2017-07-21T16:30:01.020Z,24.06
2017-07-21T16:32:27.402Z,24.06
2017-07-21T16:34:53.791Z,24.06
2017-07-21T16:37:20.172Z,24.06
2017-07-21T16:39:46.541Z,24.06
2017-07-21T16:42:12.898Z,24.05
2017-07-21T16:44:39.271Z,24.05
2017-07-21T16:47:05.664Z,24.05
2017-07-21T16:49:32.023Z,24.05
2017-07-21T16:51:58.403Z,24.05
2017-07-21T16:54:24.773Z,24.06
2017-07-21T16:56:51.163Z,24.05
2017-07-21T16:59:17.544Z,24.05
2017-07-21T17:01:43.921Z,24.05
2017-07-21T17:04:10.293Z,24.05
2017-07-21T17:06:36.656Z,24.05
2017-07-21T17:09:03.036Z,24.05
2017-07-21T17:11:30.171Z,24.05
2017-07-21T17:13:56.555Z,24.05
2017-07-21T17:16:23.691Z,24.05
2017-07-21T17:18:50.067Z,24.05
2017-07-21T17:21:17.230Z,24.05
2017-07-21T17:23:44.374Z,24.05
2017-07-21T17:26:10.750Z,24.05
2017-07-21T17:28:37.908Z,24.04
2017-07-21T17:31:05.042Z,24.04
2017-07-21T17:33:31.470Z,24.05
2017-07-21T17:35:57.889Z,24.05
2017-07-21T17:38:24.258Z,24.05
2017-07-21T17:40:50.632Z,24.04
2017-07-21T17:43:16.997Z,24.04
2017-07-21T17:45:43.381Z,24.04
2017-07-21T17:48:10.527Z,24.04
2017-07-21T17:50:36.931Z,24.04
2017-07-21T17:53:03.301Z,24.04
2017-07-21T17:55:29.705Z,24.04
2017-07-21T17:57:56.076Z,24.04
2017-07-21T18:00:22.443Z,24.04
2017-07-21T18:02:48.928Z,24.04
2017-07-21T18:05:15.492Z,24.05
2017-07-21T18:07:42.026Z,24.04
2017-07-21T18:10:08.694Z,24.04
2017-07-21T18:12:35.152Z,24.04
2017-07-21T18:15:01.518Z,24.05
2017-07-21T18:17:27.886Z,24.04
2017-07-21T18:19:54.264Z,24.03
2017-07-21T18:22:20.639Z,24.03
2017-07-21T18:24:47.763Z,24.03
2017-07-21T18:27:14.156Z,24.04
2017-07-21T18:29:40.564Z,24.03
2017-07-21T18:32:06.969Z,24.04
2017-07-21T18:34:33.354Z,24.03
2017-07-21T18:36:59.870Z,24.04
2017-07-21T18:39:26.240Z,24.03
2017-07-21T18:41:52.622Z,24.03
2017-07-21T18:44:18.982Z,24.02
2017-07-21T18:46:45.371Z,24.02
2017-07-21T18:49:11.734Z,24.02
2017-07-21T18:51:38.831Z,24.03
2017-07-21T18:54:05.317Z,24.03
2017-07-21T18:56:31.830Z,24.03
2017-07-21T18:58:58.186Z,24.02
2017-07-21T19:01:24.788Z,24.03
2017-07-21T19:03:51.163Z,24.02
2017-07-21T19:06:17.529Z,24.02
2017-07-21T19:08:43.905Z,24.02
2017-07-21T19:11:10.270Z,24.02
2017-07-21T19:13:36.664Z,24.02
2017-07-21T19:16:03.812Z,24.02
2017-07-21T19:18:30.168Z,24.01
2017-07-21T19:20:57.313Z,24.01
2017-07-21T19:23:23.674Z,24.01
2017-07-21T19:25:50.056Z,24.02
2017-07-21T19:28:17.186Z,24.02
2017-07-21T19:30:43.584Z,24.02
2017-07-21T19:33:09.959Z,24.02
2017-07-21T19:35:36.358Z,24.01
2017-07-21T19:38:02.746Z,24.02
2017-07-21T19:40:29.475Z,24.02
2017-07-21T19:42:55.840Z,24.01
2017-07-21T19:45:22.236Z,24.01
2017-07-21T19:47:48.598Z,24.02
2017-07-21T19:50:15.042Z,24.01
2017-07-21T19:52:41.451Z,24.00
2017-07-21T19:55:07.932Z,24.00
2017-07-21T19:57:34.491Z,24.01
2017-07-21T20:00:00.866Z,24.01
2017-07-21T20:02:27.238Z,24.00
2017-07-21T20:04:53.611Z,24.00
2017-07-21T20:07:20.094Z,24.00
2017-07-21T20:09:46.649Z,24.01
2017-07-21T20:12:13.025Z,24.01
2017-07-21T20:14:39.423Z,24.01
2017-07-21T20:17:05.817Z,24.01
2017-07-21T20:19:32.179Z,24.01
2017-07-21T20:21:59.331Z,24.00
2017-07-21T20:24:25.694Z,24.00
2017-07-21T20:26:52.826Z,24.00
2017-07-21T20:29:19.213Z,24.00
2017-07-21T20:31:46.358Z,24.01
2017-07-21T20:34:12.734Z,24.00
2017-07-21T20:36:39.879Z,24.02
2017-07-21T20:39:06.234Z,24.03
2017-07-21T20:41:32.624Z,24.04
2017-07-21T20:43:59.014Z,24.06
2017-07-21T20:46:25.406Z,24.07
2017-07-21T20:48:51.766Z,24.09
2017-07-21T20:51:18.149Z,24.11
2017-07-21T20:53:44.507Z,24.12
2017-07-21T20:56:10.881Z,24.12
2017-07-21T20:58:37.343Z,24.13
2017-07-21T21:01:03.727Z,24.15
2017-07-21T21:03:30.738Z,24.15
2017-07-21T21:05:57.453Z,24.14
2017-07-21T21:08:23.916Z,24.14
2017-07-21T21:10:50.546Z,24.14
2017-07-21T21:13:16.985Z,24.14
2017-07-21T21:15:44.916Z,24.13
2017-07-21T21:18:11.351Z,24.13
2017-07-21T21:20:37.794Z,24.13
2017-07-21T21:23:04.212Z,24.12
2017-07-21T21:25:30.922Z,24.12
2017-07-21T21:27:58.282Z,24.12
2017-07-21T21:30:24.944Z,24.12
2017-07-21T21:32:51.354Z,24.12
2017-07-21T21:35:17.980Z,24.12
2017-07-21T21:37:44.974Z,24.12
2017-07-21T21:40:12.465Z,24.11
2017-07-21T21:42:39.561Z,24.11
2017-07-21T21:45:05.986Z,24.10
2017-07-21T21:47:33.259Z,24.10
2017-07-21T21:49:59.770Z,24.10
2017-07-21T21:52:26.194Z,24.10
2017-07-21T21:54:52.615Z,24.10
2017-07-21T21:57:21.994Z,24.11
2017-07-21T21:59:48.733Z,24.12
2017-07-21T22:02:15.200Z,24.13
2017-07-21T22:04:42.471Z,24.12
2017-07-21T22:07:08.859Z,24.12
2017-07-21T22:09:35.246Z,24.13
2017-07-21T22:12:01.647Z,24.14
2017-07-21T22:14:28.044Z,24.14
2017-07-21T22:16:54.421Z,24.14
2017-07-21T22:19:20.782Z,24.13
2017-07-21T22:21:47.163Z,24.12
2017-07-21T22:24:13.652Z,24.12
2017-07-21T22:26:40.022Z,24.11
2017-07-21T22:29:06.402Z,24.11
2017-07-21T22:31:32.966Z,24.10
2017-07-21T22:33:59.459Z,24.10
2017-07-21T22:36:25.827Z,24.09
2017-07-21T22:38:52.194Z,24.10
2017-07-21T22:41:18.551Z,24.08
2017-07-21T22:43:44.927Z,24.07
2017-07-21T22:46:11.290Z,24.07
2017-07-21T22:48:37.662Z,24.07
2017-07-21T22:51:04.039Z,24.07
2017-07-21T22:53:31.279Z,24.06
2017-07-21T22:55:57.654Z,24.06
2017-07-21T22:58:24.035Z,24.06
2017-07-21T23:00:50.407Z,24.06
2017-07-21T23:03:16.791Z,24.05
2017-07-21T23:05:43.410Z,24.05
2017-07-21T23:08:09.790Z,24.05
2017-07-21T23:10:36.160Z,24.04
2017-07-21T23:13:02.568Z,24.04
2017-07-21T23:15:28.964Z,24.03
2017-07-21T23:17:56.097Z,24.03
2017-07-21T23:20:22.479Z,24.03
2017-07-21T23:22:49.627Z,24.02
2017-07-21T23:25:15.999Z,24.02
2017-07-21T23:27:43.133Z,24.02
2017-07-21T23:30:09.529Z,24.02
2017-07-21T23:32:36.673Z,24.02
2017-07-21T23:35:03.833Z,24.02
2017-07-21T23:37:30.205Z,24.01
2017-07-21T23:39:57.356Z,24.01
2017-07-21T23:42:23.731Z,24.01
2017-07-21T23:44:50.106Z,24.00
2017-07-21T23:47:16.478Z,24.01
2017-07-21T23:49:42.833Z,24.00
2017-07-21T23:52:09.222Z,24.00
2017-07-21T23:54:35.722Z,23.99
2017-07-21T23:57:02.106Z,23.99
2017-07-21T23:59:28.491Z,23.99
